Time;durP1;ratioP1;P1;durP2;ratioP2;P2;SDS_P1;SDS_P2;PMS_P1;PMS_P2;Temp;Humidity;BMP_temperature;BMP_pressure;BME280_temperature;BME280_humidity;BME280_pressure;Samples;Min_cycle;Max_cycle;Signal;HPM_P1;HPM_P2
2022/05/14 16:40:16;;;;;;;26.35;9.07;;;19.90;99.90;;;20.01;55.19;102047.91;5110124;27;1252869;-69
2022/05/14 16:42:45;;;;;;;21.85;8.75;;;19.80;99.90;;;20.10;54.71;102040.53;5130728;28;20050;-68
2022/05/14 16:45:14;;;;;;;24.45;8.23;;;19.80;99.90;;;20.28;55.18;102052.66;5130587;28;20052;-68
2022/05/14 16:47:43;;;;;;;20.30;7.95;;;20.00;99.90;;;20.50;54.54;102052.03;5130475;28;20047;-67
2022/05/14 16:50:14;;;;;;;23.58;8.90;;;20.20;99.90;;;20.63;53.52;102047.22;5130537;28;20043;-68
2022/05/14 16:52:45;;;;;;;22.40;8.68;;;20.30;99.90;;;20.73;52.67;102043.34;5130358;28;20043;-60
2022/05/14 16:55:17;;;;;;;22.00;8.35;;;20.50;99.90;;;20.89;52.56;102043.81;5130802;28;20047;-60
2022/05/14 16:57:45;;;;;;;22.00;8.30;;;20.60;99.90;;;20.87;52.49;102041.16;5112168;28;20058;-60
2022/05/14 17:00:18;;;;;;;26.02;8.13;;;20.60;99.90;;;20.85;53.16;102053.78;5130399;28;20046;-60
2022/05/14 17:02:49;;;;;;;21.80;8.07;;;20.60;99.90;;;20.88;52.55;102047.44;5130406;28;20146;-60
2022/05/14 17:05:18;;;;;;;20.85;8.55;;;20.60;99.90;;;20.80;52.16;102036.00;5130231;28;20047;-60
2022/05/14 17:07:47;;;;;;;21.70;8.60;;;20.60;99.90;;;20.97;51.53;102047.16;5130168;28;20508;-60
2022/05/14 17:10:21;;;;;;;21.35;8.02;;;20.60;99.90;;;20.85;52.59;102044.84;5130265;28;20047;-60
2022/05/14 17:12:52;;;;;;;19.05;7.15;;;20.50;99.90;;;21.04;51.09;102046.13;5130278;28;20048;-60
2022/05/14 17:15:22;;;;;;;20.45;8.20;;;20.60;99.90;;;21.25;50.27;102049.03;5130098;28;20430;-60
2022/05/14 17:17:51;;;;;;;19.98;8.30;;;20.90;99.90;;;21.27;50.30;102035.56;5129932;28;20047;-60
2022/05/14 17:20:23;;;;;;;17.30;7.55;;;20.90;99.90;;;21.36;50.47;102041.56;5129792;28;20046;-60
2022/05/14 17:22:53;;;;;;;17.25;7.47;;;21.10;99.90;;;21.06;50.63;102042.44;5129846;28;20069;-60
2022/05/14 17:25:23;;;;;;;22.00;8.23;;;20.80;99.90;;;21.20;50.33;102033.97;5130090;28;20092;-61
2022/05/14 17:27:52;;;;;;;21.73;8.15;;;20.90;99.90;;;21.10;51.13;102040.56;5111527;28;20469;-60
2022/05/14 17:30:25;;;;;;;17.63;7.97;;;20.80;99.90;;;21.26;50.57;102010.44;5129853;28;20047;-60
2022/05/14 17:32:54;;;;;;;23.80;8.68;;;21.00;99.90;;;21.50;50.67;102041.97;5129861;28;20040;-60
2022/05/14 17:35:42;;;;;;;21.15;7.75;;;21.20;99.90;;;21.59;49.92;102035.44;5129786;28;20100;-60
2022/05/14 17:40:59;;;;;;;20.98;8.23;;;21.30;99.90;;;21.71;49.35;102042.25;5129572;28;20055;-60
2022/05/14 17:43:27;;;;;;;20.53;8.30;;;21.40;99.90;;;21.81;49.49;102039.28;5129723;28;20400;-61
2022/05/14 17:45:56;;;;;;;24.63;8.20;;;21.50;99.90;;;21.83;49.21;102041.91;5129574;28;20288;-60
2022/05/14 17:48:24;;;;;;;22.60;7.72;;;21.50;99.90;;;21.88;49.22;102054.31;5129519;28;20071;-60
2022/05/14 17:50:53;;;;;;;20.67;7.95;;;21.60;99.90;;;21.93;48.99;102043.38;5119702;28;20036;-61
2022/05/14 17:53:21;;;;;;;22.33;7.75;;;21.60;99.90;;;22.02;48.66;102049.34;5115803;28;20074;-61
2022/05/14 17:55:49;;;;;;;17.63;7.88;;;21.70;99.90;;;21.83;48.84;102042.81;5115913;28;20454;-61
2022/05/14 17:58:19;;;;;;;18.92;7.18;;;21.60;99.90;;;21.92;49.10;102036.22;5115696;28;20062;-61
2022/05/14 18:00:49;;;;;;;18.85;7.13;;;21.60;99.90;;;22.07;49.30;102039.28;5115565;28;20078;-61
2022/05/14 18:03:18;;;;;;;18.05;7.70;;;21.70;99.90;;;22.04;48.35;102041.22;5115912;28;20047;-61
2022/05/14 18:05:46;;;;;;;18.70;7.15;;;21.70;99.90;;;22.07;48.80;102035.69;5115242;28;20044;-61
2022/05/14 18:08:15;;;;;;;21.05;8.10;;;21.70;99.90;;;22.17;48.12;102040.75;5115325;28;20468;-61
2022/05/14 18:13:30;;;;;;;19.75;7.18;;;21.90;99.90;;;22.23;48.45;102035.16;5115452;28;20044;-61
2022/05/14 18:15:59;;;;;;;16.92;7.00;;;21.90;99.90;;;22.09;48.40;102033.84;5115366;28;20050;-60
2022/05/14 18:18:27;;;;;;;20.17;7.72;;;21.80;99.90;;;22.13;47.92;102044.47;5115132;28;20488;-60
2022/05/14 18:20:56;;;;;;;19.15;7.80;;;21.80;99.90;;;22.11;47.74;102037.38;5096692;28;20044;-62
2022/05/14 18:23:24;;;;;;;19.08;7.80;;;21.80;99.90;;;22.11;47.91;102038.25;5115173;28;20040;-61
2022/05/14 18:26:00;;;;;;;21.40;7.85;;;21.70;99.90;;;22.09;48.02;102041.94;5115182;28;20078;-61
2022/05/14 18:28:40;;;;;;;15.73;7.00;;;21.70;99.90;;;22.03;48.31;102034.03;5115180;28;20063;-60
2022/05/14 18:31:12;;;;;;;22.48;7.43;;;21.60;99.90;;;21.99;48.58;102024.31;5114969;28;20463;-61
2022/05/14 18:33:44;;;;;;;22.65;8.43;;;21.60;99.90;;;22.04;48.63;102035.81;5115080;28;20050;-61
2022/05/14 18:36:17;;;;;;;22.92;7.82;;;21.60;99.90;;;22.00;48.64;102034.16;5114846;28;20488;-60
2022/05/14 18:38:53;;;;;;;17.42;6.90;;;21.60;99.90;;;22.04;48.50;102027.72;5114656;28;20101;-60
2022/05/14 18:41:26;;;;;;;19.92;7.20;;;21.70;99.90;;;21.99;48.38;102030.56;5114649;28;20044;-61
2022/05/14 18:43:58;;;;;;;21.90;7.88;;;21.60;99.90;;;21.89;48.35;102025.56;5114831;28;20085;-61
2022/05/14 18:46:27;;;;;;;20.85;8.30;;;21.60;99.90;;;21.97;48.93;102018.09;5114441;28;20525;-60
2022/05/14 18:48:55;;;;;;;18.50;8.10;;;21.60;99.90;;;21.91;48.96;102024.53;5114562;28;20040;-61
2022/05/14 18:51:24;;;;;;;20.20;7.78;;;21.60;99.90;;;21.91;49.26;102027.25;5114524;28;20404;-61
2022/05/14 18:53:52;;;;;;;18.60;7.50;;;21.60;99.90;;;21.83;49.47;102026.63;5114404;28;20356;-62
2022/05/14 18:56:21;;;;;;;17.60;7.00;;;21.50;99.90;;;21.80;48.77;102024.03;5114397;28;20126;-61
2022/05/14 18:58:50;;;;;;;18.65;7.60;;;21.50;99.90;;;21.79;48.79;102024.94;5114770;28;20142;-61
2022/05/14 19:01:20;;;;;;;15.50;6.72;;;21.40;99.90;;;21.79;49.03;102016.84;5113667;28;20066;-62
2022/05/14 19:09:22;;;;;;;21.70;7.78;;;21.30;99.90;;;21.59;49.22;102000.44;5114416;28;20067;-61
2022/05/14 19:11:53;;;;;;;21.15;7.78;;;21.30;99.90;;;21.58;49.36;102011.25;5114250;28;20059;-61
2022/05/14 19:14:22;;;;;;;30.67;8.75;;;21.20;99.90;;;21.45;49.96;102008.94;5095914;28;20075;-61
2022/05/14 19:16:52;;;;;;;22.00;8.15;;;21.10;99.90;;;21.52;50.15;102015.03;5113917;28;20059;-60
2022/05/14 19:19:20;;;;;;;22.90;8.50;;;21.10;99.90;;;21.51;50.24;102019.53;5114160;28;20043;-61
2022/05/14 19:21:49;;;;;;;22.33;8.00;;;21.10;99.90;;;21.46;50.56;102016.13;5095667;28;20454;-61
2022/05/14 19:24:20;;;;;;;18.77;6.82;;;21.00;99.90;;;21.45;50.52;102017.03;5114133;28;20044;-61
2022/05/14 19:26:48;;;;;;;22.90;8.00;;;21.00;99.90;;;21.35;51.10;102018.22;5113924;28;20032;-62
2022/05/14 19:29:18;;;;;;;26.77;8.00;;;20.90;99.90;;;21.30;51.02;102022.00;5113670;28;20071;-63
2022/05/14 19:31:46;;;;;;;21.50;7.63;;;20.90;99.90;;;21.25;51.09;102015.88;5095688;28;20062;-61
2022/05/14 19:34:16;;;;;;;22.20;8.10;;;20.80;99.90;;;21.19;51.50;102016.06;5113760;28;20454;-62
2022/05/14 19:36:50;;;;;;;20.63;8.15;;;20.80;99.90;;;21.19;51.73;102016.06;5113597;28;20130;-61
2022/05/14 19:39:20;;;;;;;21.77;7.90;;;20.80;99.90;;;21.11;51.90;102018.97;5113468;28;20089;-61
2022/05/14 19:41:54;;;;;;;21.00;7.95;;;20.70;99.90;;;21.07;51.56;102021.78;5113757;28;20069;-61
2022/05/14 19:44:28;;;;;;;20.63;8.00;;;20.60;99.90;;;20.97;51.59;102020.25;5095285;28;20048;-60
2022/05/14 19:46:57;;;;;;;21.73;7.82;;;20.50;99.90;;;20.98;52.06;102022.03;5113502;28;20112;-60
2022/05/14 19:49:28;;;;;;;18.70;8.20;;;20.60;99.90;;;20.93;52.36;102024.84;5113322;28;20534;-60
2022/05/14 19:51:57;;;;;;;20.33;8.10;;;20.50;99.90;;;20.84;52.12;102022.44;5113385;28;20047;-60
2022/05/14 19:54:26;;;;;;;21.95;8.85;;;20.40;99.90;;;20.76;52.07;102024.44;5113164;28;20059;-61
2022/05/14 19:56:54;;;;;;;22.52;8.55;;;20.30;99.90;;;20.78;52.26;102025.28;5113500;28;20048;-61
2022/05/14 19:59:27;;;;;;;25.08;8.90;;;20.30;99.90;;;20.76;52.47;102037.91;5113442;28;20051;-60
2022/05/14 20:01:56;;;;;;;23.33;8.38;;;20.30;99.90;;;20.77;52.47;102036.09;5113103;28;20559;-60
2022/05/14 20:04:29;;;;;;;20.10;8.98;;;20.30;99.90;;;20.60;53.63;102034.75;5113184;28;20096;-60
2022/05/14 20:06:59;;;;;;;22.38;9.52;;;20.20;99.90;;;20.61;53.45;102028.44;5113166;28;20043;-60
2022/05/14 20:09:28;;;;;;;25.10;11.20;;;20.20;99.90;;;20.52;54.26;102033.16;5113530;28;20054;-60
2022/05/14 20:11:57;;;;;;;22.08;11.20;;;20.10;99.90;;;20.46;54.32;102039.59;5112895;28;20123;-60
2022/05/14 20:14:27;;;;;;;22.83;11.07;;;20.00;99.90;;;20.44;54.52;102038.75;5094439;28;20143;-60
2022/05/14 20:22:31;;;;;;;21.27;9.57;;;20.00;99.90;;;20.37;54.20;102033.59;5112995;28;20044;-61
2022/05/14 20:25:00;;;;;;;23.02;9.73;;;20.00;99.90;;;20.30;54.64;102042.75;5112863;28;20028;-61
2022/05/14 20:27:28;;;;;;;21.08;9.85;;;19.90;99.90;;;20.21;54.49;102043.84;5113214;28;20067;-61
2022/05/14 20:29:56;;;;;;;22.10;10.13;;;19.80;99.90;;;20.13;54.71;102032.38;5112786;28;20100;-60
2022/05/14 20:32:25;;;;;;;27.55;10.73;;;19.80;99.90;;;20.09;55.11;102036.03;5112779;28;20130;-62
2022/05/14 20:34:55;;;;;;;22.77;9.80;;;19.70;99.90;;;20.19;54.95;102042.13;5112820;28;20389;-62
2022/05/14 20:37:25;;;;;;;22.93;9.57;;;19.70;99.90;;;20.18;55.32;102041.25;5112835;28;20036;-62
2022/05/14 20:39:54;;;;;;;;;;;19.70;99.90;;;20.15;56.17;102043.09;5113078;28;20097;-61
2022/05/14 20:42:22;;;;;;;24.58;10.18;;;19.70;99.90;;;20.10;56.09;102037.81;5111688;28;20395;-61
2022/05/14 20:44:52;;;;;;;25.92;9.88;;;19.70;99.90;;;20.07;56.40;102048.66;5113005;28;20549;-61
2022/05/14 20:47:23;;;;;;;24.60;10.27;;;19.60;99.90;;;20.10;56.60;102037.81;5094647;28;20476;-61
2022/05/14 20:49:51;;;;;;;30.60;10.60;;;19.60;99.90;;;19.98;56.63;102038.13;5112845;28;20044;-61
2022/05/14 20:52:21;;;;;;;22.00;9.68;;;19.60;99.90;;;20.02;57.03;102046.97;5112796;28;20042;-61
2022/05/14 20:54:49;;;;;;;26.63;10.03;;;19.60;99.90;;;19.95;57.73;102050.75;5112705;28;20518;-61
2022/05/14 20:57:20;;;;;;;23.45;10.15;;;19.60;99.90;;;19.91;57.61;102044.56;5112862;28;20052;-62
2022/05/14 20:59:48;;;;;;;;;;;19.50;99.90;;;19.91;57.47;102049.06;5113036;28;20043;-61
2022/05/14 21:02:17;;;;;;;29.58;9.40;;;19.50;99.90;;;19.84;57.87;102051.00;5112628;28;20364;-61
2022/05/14 21:04:47;;;;;;;27.83;10.65;;;19.40;99.90;;;19.71;57.41;102023.56;5112632;28;20043;-61
2022/05/14 21:07:15;;;;;;;25.38;10.40;;;19.50;99.90;;;19.80;57.44;102052.00;5094230;28;20044;-60
2022/05/14 21:09:45;;;;;;;27.20;10.32;;;19.40;99.90;;;19.78;57.27;102046.66;5112727;28;20130;-61
2022/05/14 21:12:13;;;;;;;28.10;10.95;;;19.40;99.90;;;19.74;57.67;102047.63;5112737;28;20461;-61
2022/05/14 21:14:42;;;;;;;25.48;9.98;;;19.30;99.90;;;19.63;57.84;102047.00;5112734;28;20043;-61
2022/05/14 21:17:12;;;;;;;23.33;9.20;;;19.20;99.90;;;19.63;58.31;102043.44;5112554;28;20050;-60
2022/05/14 21:19:40;;;;;;;26.15;9.85;;;19.20;99.90;;;19.67;58.26;102050.50;5094250;28;20077;-60
2022/05/14 21:22:09;;;;;;;24.17;9.75;;;19.20;99.90;;;19.69;58.31;102043.31;5112318;28;20035;-62
2022/05/14 21:24:37;;;;;;;26.65;10.13;;;19.30;99.90;;;19.60;58.27;102043.53;5112515;28;20691;-61
2022/05/14 21:27:07;;;;;;;28.13;10.38;;;19.20;99.90;;;19.53;58.44;102034.72;5116397;28;20130;-61
2022/05/14 21:29:36;;;;;;;22.48;10.20;;;19.10;99.90;;;19.59;58.82;102041.75;5116316;28;20063;-61
2022/05/14 21:32:06;;;;;;;22.40;9.93;;;19.20;99.90;;;19.45;59.15;102023.25;5116278;28;20075;-61
2022/05/14 21:37:39;;;;;;;30.80;11.23;;;19.20;99.90;;;19.57;58.98;102043.56;5116103;28;20553;-61
2022/05/14 21:40:12;;;;;;;32.92;10.80;;;19.20;99.90;;;19.58;58.68;102031.94;5116312;28;20443;-61
2022/05/14 21:42:48;;;;;;;26.17;10.35;;;19.20;99.90;;;19.51;58.78;102030.31;5116071;28;20063;-61
2022/05/14 21:45:18;;;;;;;26.50;10.18;;;19.10;99.90;;;19.42;58.69;102039.44;5116114;28;20043;-61
2022/05/14 21:47:47;;;;;;;24.52;9.93;;;19.00;99.90;;;19.44;58.95;102042.09;5116123;28;20040;-62
2022/05/14 21:50:17;;;;;;;28.08;9.85;;;19.10;99.90;;;19.36;58.33;102033.31;5097735;28;20490;-61
2022/05/14 21:52:49;;;;;;;28.42;10.18;;;19.10;99.90;;;19.39;59.00;102033.28;5116087;28;20081;-63
2022/05/14 21:55:21;;;;;;;26.15;10.35;;;19.10;99.90;;;19.36;59.01;102028.84;5115889;28;20051;-61
2022/05/14 21:57:51;;;;;;;34.20;11.25;;;19.00;99.90;;;19.33;58.81;102033.41;5116012;28;20043;-61
2022/05/14 22:01:04;;;;;;;27.55;11.25;;;19.00;99.90;;;19.27;58.88;102033.50;5115991;28;20071;-62
2022/05/14 22:03:32;;;;;;;32.55;10.98;;;19.00;99.90;;;19.25;58.98;102030.84;5113350;28;20058;-62
2022/05/14 22:06:04;;;;;;;27.92;11.48;;;19.00;99.90;;;19.27;58.92;102038.88;5115855;28;20043;-62
2022/05/14 22:08:32;;;;;;;32.72;11.18;;;18.90;99.90;;;19.21;59.61;102029.16;5115796;28;20093;-61
2022/05/14 22:11:00;;;;;;;25.40;10.50;;;18.90;99.90;;;18.63;59.15;101927.59;5115685;28;20040;-61
2022/05/14 22:13:30;;;;;;;39.83;12.23;;;18.90;99.90;;;19.18;59.27;102031.00;5097409;28;20089;-61
2022/05/14 22:15:58;;;;;;;33.58;11.55;;;18.80;99.90;;;19.15;59.43;102026.59;5115413;28;20043;-60
2022/05/14 22:18:30;;;;;;;31.80;11.15;;;18.80;99.90;;;19.12;59.35;102024.00;5115281;28;20047;-60
2022/05/14 22:20:58;;;;;;;28.08;11.13;;;18.80;99.90;;;19.15;59.42;102025.69;5115519;28;20648;-61
2022/05/14 22:23:28;;;;;;;30.30;11.10;;;18.80;99.90;;;19.04;59.22;102017.00;5115186;28;20047;-61
2022/05/14 22:25:56;;;;;;;32.30;11.93;;;18.70;99.90;;;19.06;59.07;102025.91;5115475;28;20052;-61
2022/05/14 22:28:25;;;;;;;31.90;11.32;;;18.70;99.90;;;19.04;59.60;102027.72;5115369;28;20043;-61
2022/05/14 22:30:55;;;;;;;23.48;10.15;;;18.70;99.90;;;19.03;59.32;102028.66;5115020;28;20075;-61
2022/05/14 22:33:24;;;;;;;24.55;10.63;;;18.70;99.90;;;19.00;59.33;102028.72;5115230;28;20040;-61
2022/05/14 22:35:52;;;;;;;35.75;11.15;;;18.60;99.90;;;19.04;59.31;102030.41;5115052;28;20052;-61
2022/05/14 22:38:20;;;;;;;32.03;10.70;;;18.60;99.90;;;18.79;59.38;101998.72;5114980;28;20533;-62
2022/05/14 22:40:59;;;;;;;27.48;10.70;;;18.70;99.90;;;18.88;59.41;102014.63;5115086;28;20139;-61
2022/05/14 22:43:31;;;;;;;35.65;10.43;;;18.60;99.90;;;18.95;59.53;102019.88;5096843;28;20069;-61
2022/05/14 22:46:04;;;;;;;25.83;10.30;;;18.60;99.90;;;18.85;60.02;102019.19;5115081;28;20039;-61
2022/05/14 22:48:38;;;;;;;29.63;9.93;;;18.50;99.90;;;18.86;59.86;102024.50;5114833;28;20114;-60
2022/05/14 22:51:10;;;;;;;29.92;10.75;;;18.50;99.90;;;18.77;60.04;102021.13;5114983;28;20112;-76
2022/05/14 22:53:40;;;;;;;28.25;10.95;;;18.40;99.90;;;18.72;60.21;102021.22;5096331;28;20572;-72
2022/05/14 22:56:09;;;;;;;29.77;10.27;;;18.40;99.90;;;18.72;60.20;102015.84;5114817;28;20519;-74
2022/05/14 22:58:39;;;;;;;28.02;10.95;;;18.40;99.90;;;18.69;60.41;102015.03;5114449;28;20055;-74
2022/05/14 23:01:12;;;;;;;29.92;11.05;;;18.30;99.90;;;18.69;60.59;102013.25;5114376;28;20047;-73
2022/05/14 23:03:42;;;;;;;29.95;10.57;;;18.30;99.90;;;18.66;60.56;102013.28;5114424;28;20039;-74
2022/05/14 23:06:12;;;;;;;41.60;11.45;;;18.30;99.90;;;18.67;60.63;102014.19;5114279;28;20374;-74
2022/05/14 23:08:40;;;;;;;32.38;11.35;;;18.30;99.90;;;18.65;60.65;102019.56;5114288;28;20042;-74
2022/05/14 23:11:10;;;;;;;28.10;10.63;;;18.30;99.90;;;18.63;60.85;102020.50;5114123;28;20073;-74
2022/05/14 23:13:38;;;;;;;32.88;10.40;;;18.20;99.90;;;18.59;61.19;102017.00;5114189;28;20489;-74
2022/05/14 23:16:08;;;;;;;33.10;11.20;;;18.20;99.90;;;18.47;61.39;102002.94;5114083;28;20396;-74
2022/05/14 23:18:37;;;;;;;32.72;10.68;;;18.20;99.90;;;18.53;61.52;102001.03;5095662;28;20052;-73
2022/05/14 23:21:06;;;;;;;31.92;9.90;;;18.20;99.90;;;18.39;61.80;102003.03;5113973;28;20051;-74
2022/05/14 23:23:35;;;;;;;30.52;11.15;;;18.10;99.90;;;18.37;62.14;102012.03;5113923;28;20043;-73
2022/05/14 23:26:07;;;;;;;32.03;10.27;;;18.00;99.90;;;18.29;62.26;102006.81;5113936;28;20086;-72
2022/05/14 23:28:37;;;;;;;28.25;10.32;;;18.00;99.90;;;18.23;62.75;101998.91;5114062;28;20054;-74
2022/05/14 23:31:05;;;;;;;37.75;10.88;;;17.90;99.90;;;18.22;63.08;101998.91;5114007;28;20035;-73
2022/05/14 23:33:35;;;;;;;31.42;11.68;;;17.90;99.90;;;18.01;63.31;101968.03;5113853;28;20051;-74
2022/05/14 23:38:51;;;;;;;35.17;10.88;;;17.90;99.90;;;18.06;63.69;101992.94;5113602;28;20055;-73
2022/05/14 23:41:19;;;;;;;35.90;11.10;;;17.80;99.90;;;18.08;63.92;101996.47;5113935;28;20051;-74
2022/05/14 23:43:48;;;;;;;39.25;12.30;;;17.80;99.90;;;18.03;64.44;101995.66;5113551;28;20446;-73
2022/05/14 23:46:16;;;;;;;32.42;10.48;;;17.70;99.90;;;18.04;64.65;101992.06;5113890;28;20047;-73
2022/05/14 23:48:46;;;;;;;33.90;11.40;;;17.70;99.90;;;17.98;64.81;101997.56;5113087;28;20097;-73
2022/05/14 23:51:14;;;;;;;32.57;11.63;;;17.60;99.90;;;18.01;65.15;101992.13;5113779;28;20048;-74
2022/05/14 23:53:43;;;;;;;33.53;11.20;;;17.60;99.90;;;17.98;65.26;101995.75;5113401;28;20044;-74
2022/05/14 23:56:11;;;;;;;34.75;10.77;;;17.60;99.90;;;17.82;65.72;101988.00;5113475;28;20085;-74
